createdAt,value
2023-04-15T00:02:20.985Z,99575.98
2023-04-15T00:04:49.396Z,99574.32
2023-04-15T00:07:17.885Z,99576.70
2023-04-15T00:09:46.093Z,99575.02
2023-04-15T00:12:13.898Z,99575.04
2023-04-15T00:14:41.700Z,99578.61
2023-04-15T00:17:09.477Z,99578.87
2023-04-15T00:19:37.553Z,99575.83
2023-04-15T00:22:06.171Z,99575.50
2023-04-15T00:24:34.048Z,99581.06
2023-04-15T00:27:01.887Z,99580.55
2023-04-15T00:29:30.576Z,99576.35
2023-04-15T00:32:01.420Z,99580.14
2023-04-15T00:34:31.294Z,99576.23
2023-04-15T00:36:59.798Z,99579.95
2023-04-15T00:39:28.199Z,99573.59
2023-04-15T00:41:57.396Z,99572.38
2023-04-15T00:44:25.637Z,99569.10
2023-04-15T00:46:53.954Z,99568.54
2023-04-15T00:49:23.012Z,99569.94
2023-04-15T00:51:51.375Z,99565.45
2023-04-15T00:54:19.207Z,99566.75
2023-04-15T00:56:47.010Z,99562.58
2023-04-15T00:59:15.133Z,99562.06
2023-04-15T01:01:44.428Z,99562.59
2023-04-15T01:04:13.129Z,99560.95
2023-04-15T01:06:41.139Z,99555.29
2023-04-15T01:09:09.028Z,99558.94
2023-04-15T01:11:36.878Z,99560.27
2023-04-15T01:14:04.816Z,99557.89
2023-04-15T01:16:32.836Z,99563.84
2023-04-15T01:19:02.066Z,99564.35
2023-04-15T01:21:30.386Z,99564.95
2023-04-15T01:23:58.840Z,99562.89
2023-04-15T01:26:27.296Z,99567.39
2023-04-15T01:28:56.254Z,99571.47
2023-04-15T01:31:25.176Z,99574.66
2023-04-15T01:33:53.012Z,99576.30
2023-04-15T01:36:21.152Z,99579.04
2023-04-15T01:38:48.971Z,99577.17
2023-04-15T01:41:17.260Z,99579.96
2023-04-15T01:43:45.646Z,99581.80
2023-04-15T01:46:13.505Z,99581.21
2023-04-15T01:48:41.272Z,99582.43
2023-04-15T01:51:09.116Z,99582.13
2023-04-15T01:53:37.333Z,99581.68
2023-04-15T01:56:05.579Z,99582.61
2023-04-15T01:58:33.705Z,99578.49
2023-04-15T02:01:02.929Z,99582.48
2023-04-15T02:03:33.917Z,99583.09
2023-04-15T02:06:02.474Z,99578.77
2023-04-15T02:08:30.404Z,99579.96
2023-04-15T02:10:58.259Z,99579.23
2023-04-15T02:13:27.022Z,99582.15
2023-04-15T02:15:57.091Z,99580.86
2023-04-15T02:18:24.847Z,99582.70
2023-04-15T02:20:52.854Z,99583.64
2023-04-15T02:23:20.680Z,99577.63
2023-04-15T02:25:53.503Z,99572.48
2023-04-15T02:28:22.425Z,99574.60
2023-04-15T02:30:54.707Z,99575.48
2023-04-15T02:33:22.557Z,99574.42
2023-04-15T02:35:50.903Z,99577.14
2023-04-15T02:38:18.827Z,99576.82
2023-04-15T02:40:46.902Z,99579.50
2023-04-15T02:43:14.685Z,99576.66
2023-04-15T02:45:43.744Z,99580.06
2023-04-15T02:48:11.897Z,99575.84
2023-04-15T02:50:40.709Z,99578.48
2023-04-15T02:53:09.604Z,99576.93
2023-04-15T02:55:37.473Z,99575.60
2023-04-15T02:58:05.281Z,99574.67
2023-04-15T03:00:33.165Z,99575.77
2023-04-15T03:03:06.103Z,99568.81
2023-04-15T03:05:34.285Z,99577.79
2023-04-15T03:08:03.065Z,99576.84
2023-04-15T03:10:30.955Z,99573.38
2023-04-15T03:12:58.715Z,99576.42
2023-04-15T03:15:27.131Z,99578.90
2023-04-15T03:17:55.687Z,99583.71
2023-04-15T03:20:24.068Z,99578.19
2023-04-15T03:22:52.610Z,99583.20
2023-04-15T03:25:21.619Z,99581.84
2023-04-15T03:27:49.483Z,99585.38
2023-04-15T03:30:18.057Z,99587.77
2023-04-15T03:32:46.783Z,99590.29
2023-04-15T03:35:14.692Z,99582.11
2023-04-15T03:37:42.456Z,99594.89
2023-04-15T03:40:10.944Z,99593.60
2023-04-15T03:42:38.740Z,99592.35
2023-04-15T03:45:07.597Z,99597.63
2023-04-15T03:47:35.472Z,99599.38
2023-04-15T03:50:03.575Z,99600.85
2023-04-15T03:52:34.085Z,99599.21
2023-04-15T03:55:02.318Z,99601.96
2023-04-15T03:57:31.182Z,99602.91
2023-04-15T03:59:58.956Z,99602.33
2023-04-15T04:02:28.255Z,99606.58
2023-04-15T04:04:56.408Z,99607.49
2023-04-15T04:07:24.614Z,99610.46
2023-04-15T04:09:57.725Z,99607.24
2023-04-15T04:12:25.633Z,99602.46
2023-04-15T04:14:53.454Z,99605.27
2023-04-15T04:17:21.643Z,99609.44
2023-04-15T04:19:49.450Z,99604.90
2023-04-15T04:22:17.262Z,99606.86
2023-04-15T04:24:45.159Z,99606.92
2023-04-15T04:27:12.894Z,99603.83
2023-04-15T04:29:41.042Z,99606.20
2023-04-15T04:32:08.874Z,99603.64
2023-04-15T04:34:36.816Z,99611.08
2023-04-15T04:37:04.610Z,99604.25
2023-04-15T04:39:32.717Z,99611.58
2023-04-15T04:42:01.378Z,99611.50
2023-04-15T04:44:29.138Z,99615.19
2023-04-15T04:46:57.355Z,99614.29
2023-04-15T04:49:25.523Z,99619.91
2023-04-15T04:51:53.526Z,99622.88
2023-04-15T04:54:21.386Z,99623.05
2023-04-15T04:56:49.198Z,99626.09
2023-04-15T04:59:18.984Z,99624.08
2023-04-15T05:01:47.961Z,99624.28
2023-04-15T05:04:15.951Z,99625.59
2023-04-15T05:06:43.777Z,99624.91
2023-04-15T05:09:11.591Z,99628.11
2023-04-15T05:11:39.353Z,99628.36
2023-04-15T05:14:07.564Z,99628.52
2023-04-15T05:16:35.391Z,99633.42
2023-04-15T05:19:03.352Z,99630.23
2023-04-15T05:21:31.684Z,99630.23
2023-04-15T05:23:59.500Z,99626.47
2023-04-15T05:26:27.480Z,99628.42
2023-04-15T05:28:55.457Z,99633.78
2023-04-15T05:31:23.404Z,99634.39
2023-04-15T05:33:51.304Z,99632.11
2023-04-15T05:36:19.115Z,99636.60
2023-04-15T05:38:46.929Z,99632.93
2023-04-15T05:41:17.187Z,99632.70
2023-04-15T05:43:47.071Z,99633.34
2023-04-15T05:46:14.869Z,99632.77
2023-04-15T05:48:42.649Z,99632.09
2023-04-15T05:51:11.026Z,99635.39
2023-04-15T05:53:38.830Z,99635.59
2023-04-15T05:56:07.473Z,99638.73
2023-04-15T05:58:35.773Z,99639.92
2023-04-15T06:01:04.158Z,99641.48
2023-04-15T06:03:32.167Z,99642.52
2023-04-15T06:06:00.985Z,99643.00
2023-04-15T06:08:28.837Z,99645.70
2023-04-15T06:10:56.842Z,99649.63
2023-04-15T06:13:24.799Z,99644.84
2023-04-15T06:15:53.560Z,99653.92
2023-04-15T06:18:21.483Z,99653.82
2023-04-15T06:20:49.530Z,99657.85
2023-04-15T06:23:17.380Z,99657.48
2023-04-15T06:25:45.796Z,99656.45
2023-04-15T06:28:13.672Z,99659.18
2023-04-15T06:30:41.610Z,99656.59
2023-04-15T06:33:10.747Z,99661.50
2023-04-15T06:35:39.367Z,99660.59
2023-04-15T06:38:07.200Z,99664.56
2023-04-15T06:40:35.432Z,99667.13
2023-04-15T06:43:04.777Z,99665.73
2023-04-15T06:45:32.642Z,99668.35
2023-04-15T06:48:00.895Z,99663.02
2023-04-15T06:50:28.713Z,99672.29
2023-04-15T06:52:57.363Z,99671.63
2023-04-15T06:55:25.205Z,99677.35
2023-04-15T06:57:53.004Z,99674.71
2023-04-15T07:00:21.000Z,99675.13
2023-04-15T07:02:48.964Z,99678.67
2023-04-15T07:05:17.036Z,99685.80
2023-04-15T07:07:45.278Z,99690.39
2023-04-15T07:10:14.895Z,99686.80
2023-04-15T07:12:42.844Z,99684.67
2023-04-15T07:15:11.148Z,99695.25
2023-04-15T07:17:38.999Z,99691.58
2023-04-15T07:20:08.173Z,99693.02
2023-04-15T07:22:35.986Z,99696.20
2023-04-15T07:25:04.363Z,99700.27
2023-04-15T07:27:32.531Z,99699.80
2023-04-15T07:30:00.282Z,99702.70
2023-04-15T07:32:28.057Z,99704.00
2023-04-15T07:34:55.856Z,99706.01
2023-04-15T07:37:24.011Z,99704.83
2023-04-15T07:39:52.910Z,99705.25
2023-04-15T07:42:21.379Z,99707.92
2023-04-15T07:44:49.152Z,99710.62
2023-04-15T07:47:16.936Z,99706.40
2023-04-15T07:49:45.197Z,99710.27
2023-04-15T07:52:13.199Z,99713.30
2023-04-15T07:54:40.975Z,99713.73
2023-04-15T07:57:09.841Z,99716.80
2023-04-15T07:59:40.077Z,99718.50
2023-04-15T08:02:08.497Z,99717.58
2023-04-15T08:04:36.642Z,99719.91
2023-04-15T08:07:04.998Z,99722.38
2023-04-15T08:09:32.912Z,99722.56
2023-04-15T08:12:00.954Z,99726.13
2023-04-15T08:14:29.106Z,99728.11
2023-04-15T08:16:57.120Z,99729.89
2023-04-15T08:19:25.345Z,99734.81
2023-04-15T08:21:53.137Z,99734.56
2023-04-15T08:24:21.269Z,99734.41
2023-04-15T08:26:49.150Z,99736.01
2023-04-15T08:29:17.253Z,99737.73
2023-04-15T08:31:45.638Z,99737.88
2023-04-15T08:34:13.520Z,99740.59
2023-04-15T08:36:42.366Z,99744.80
2023-04-15T08:39:12.794Z,99742.88
2023-04-15T08:41:51.648Z,99743.51
2023-04-15T08:44:21.683Z,99748.50
2023-04-15T08:46:52.118Z,99747.70
2023-04-15T08:49:22.092Z,99750.95
2023-04-15T08:51:50.266Z,99748.85
2023-04-15T08:54:18.917Z,99759.48
2023-04-15T08:56:47.590Z,99755.60
2023-04-15T08:59:16.529Z,99755.31
2023-04-15T09:01:46.136Z,99761.16
2023-04-15T09:04:14.490Z,99763.01
2023-04-15T09:06:42.481Z,99761.33
2023-04-15T09:09:10.527Z,99760.53
2023-04-15T09:11:41.064Z,99763.77
2023-04-15T09:14:09.267Z,99759.58
2023-04-15T09:17:04.953Z,99763.59
2023-04-15T09:19:36.429Z,99762.63
2023-04-15T09:22:04.320Z,99748.70
2023-04-15T09:24:42.035Z,99769.41
2023-04-15T09:27:11.152Z,99767.33
2023-04-15T09:29:41.634Z,99768.02
2023-04-15T09:32:14.680Z,99772.40
2023-04-15T09:34:43.182Z,99778.48
2023-04-15T09:37:20.628Z,99779.54
2023-04-15T09:39:57.005Z,99771.19
2023-04-15T09:42:25.094Z,99771.81
2023-04-15T09:44:53.135Z,99775.41
2023-04-15T09:47:31.496Z,99776.33
2023-04-15T09:50:01.513Z,99779.64
2023-04-15T09:52:30.557Z,99777.23
2023-04-15T09:55:00.972Z,99779.11
2023-04-15T09:57:37.345Z,99780.60
2023-04-15T10:00:08.223Z,99782.01
2023-04-15T10:02:40.587Z,99761.29
2023-04-15T10:05:15.241Z,99776.78
2023-04-15T10:07:43.885Z,99775.65
2023-04-15T10:10:12.738Z,99778.11
2023-04-15T10:12:42.563Z,99780.06
2023-04-15T10:15:17.406Z,99783.73
2023-04-15T10:17:48.008Z,99785.80
2023-04-15T10:20:17.635Z,99797.40
2023-04-15T10:22:46.811Z,99801.13
2023-04-15T10:25:16.491Z,99801.77
2023-04-15T10:27:45.125Z,99801.21
2023-04-15T10:30:13.108Z,99801.27
2023-04-15T10:32:41.956Z,99801.48
2023-04-15T10:35:11.186Z,99801.65
2023-04-15T10:37:39.472Z,99811.20
2023-04-15T10:40:31.867Z,99809.44
2023-04-15T10:43:02.543Z,99810.90
2023-04-15T10:45:37.597Z,99813.46
2023-04-15T10:48:09.008Z,99814.90
2023-04-15T10:50:37.645Z,99820.02
2023-04-15T10:53:05.848Z,99819.00
2023-04-15T10:55:34.649Z,99821.23
2023-04-15T10:58:03.119Z,99818.98
2023-04-15T11:00:32.897Z,99817.30
2023-04-15T11:03:09.477Z,99819.97
2023-04-15T11:05:54.195Z,99822.91
2023-04-15T11:08:58.785Z,99824.06
2023-04-15T11:12:09.550Z,99827.27
2023-04-15T11:14:41.970Z,99826.77
2023-04-15T11:17:10.005Z,99829.56
2023-04-15T11:19:38.939Z,99832.83
2023-04-15T11:22:11.281Z,99839.57
2023-04-15T11:24:51.884Z,99841.31
2023-04-15T11:27:23.928Z,99846.67
2023-04-15T11:29:52.921Z,99851.80
2023-04-15T11:32:21.598Z,99854.64
2023-04-15T11:34:49.458Z,99857.01
2023-04-15T11:37:17.275Z,99859.32
2023-04-15T11:39:45.123Z,99859.83
2023-04-15T11:42:19.285Z,99860.21
2023-04-15T11:44:47.070Z,99862.51
2023-04-15T11:47:25.018Z,99857.23
2023-04-15T11:49:52.985Z,99867.07
2023-04-15T11:52:20.843Z,99864.25
2023-04-15T11:54:48.694Z,99857.81
2023-04-15T11:57:16.607Z,99866.78
2023-04-15T11:59:46.039Z,99873.15
2023-04-15T12:02:14.516Z,99869.87
2023-04-15T12:04:42.842Z,99876.76
2023-04-15T12:07:12.552Z,99878.88
2023-04-15T12:09:40.720Z,99879.05
2023-04-15T12:12:08.864Z,99880.33
2023-04-15T12:14:38.244Z,99883.77
2023-04-15T12:17:06.783Z,99887.33
2023-04-15T12:19:37.318Z,99887.23
2023-04-15T12:22:15.863Z,99890.33
2023-04-15T12:24:47.738Z,99893.77
2023-04-15T12:27:17.682Z,99893.29
2023-04-15T12:29:45.690Z,99895.99
2023-04-15T12:32:19.720Z,99903.14
2023-04-15T12:34:53.220Z,99901.84
2023-04-15T12:37:21.552Z,99903.84
2023-04-15T12:39:50.410Z,99906.05
2023-04-15T12:42:18.852Z,99909.70
2023-04-15T12:44:47.252Z,99908.96
2023-04-15T12:47:15.335Z,99908.95
2023-04-15T12:49:43.228Z,99908.05
2023-04-15T12:52:13.753Z,99913.52
2023-04-15T12:54:41.641Z,99912.92
2023-04-15T12:57:09.456Z,99916.95
2023-04-15T12:59:37.654Z,99921.31
2023-04-15T13:02:05.635Z,99922.14
2023-04-15T13:04:33.718Z,99921.49
2023-04-15T13:07:02.303Z,99924.33
2023-04-15T13:09:32.551Z,99924.34
2023-04-15T13:12:01.454Z,99929.55
2023-04-15T13:14:31.647Z,99932.30
2023-04-15T13:16:59.553Z,99932.88
2023-04-15T13:19:27.588Z,99933.83
2023-04-15T13:21:55.405Z,99921.32
2023-04-15T13:24:23.173Z,99940.14
2023-04-15T13:26:51.052Z,99937.96
2023-04-15T13:29:18.975Z,99936.05
2023-04-15T13:31:46.888Z,99939.95
2023-04-15T13:34:14.721Z,99939.69
2023-04-15T13:36:42.512Z,99935.73
2023-04-15T13:39:10.320Z,99939.07
2023-04-15T13:41:38.243Z,99942.39
2023-04-15T13:44:06.536Z,99948.15
2023-04-15T13:46:34.628Z,99946.03
2023-04-15T13:49:02.450Z,99948.70
2023-04-15T13:51:30.898Z,99947.29
2023-04-15T13:53:58.679Z,99952.04
2023-04-15T13:56:26.583Z,99951.73
2023-04-15T13:58:58.955Z,99956.55
2023-04-15T14:01:27.211Z,99952.65
2023-04-15T14:03:58.192Z,99951.97
2023-04-15T14:06:28.801Z,99959.10
2023-04-15T14:08:56.638Z,99961.15
2023-04-15T14:11:24.457Z,99963.98
2023-04-15T14:13:52.356Z,99962.76
2023-04-15T14:16:20.256Z,99962.50
2023-04-15T14:18:48.137Z,99965.66
2023-04-15T14:21:15.990Z,99963.31
2023-04-15T14:23:45.552Z,99963.88
2023-04-15T14:26:14.029Z,99971.94
2023-04-15T14:28:44.948Z,99974.46
2023-04-15T14:31:13.289Z,99972.01
2023-04-15T14:33:41.217Z,99975.33
2023-04-15T14:36:10.025Z,99975.34
2023-04-15T14:38:40.989Z,99977.55
2023-04-15T14:41:09.898Z,99981.61
2023-04-15T14:43:39.161Z,99982.72
2023-04-15T14:46:08.449Z,99985.27
2023-04-15T14:48:37.128Z,99989.60
2023-04-15T14:51:05.616Z,99991.37
2023-04-15T14:53:33.577Z,99990.73
2023-04-15T14:56:01.599Z,99994.61
2023-04-15T14:58:29.394Z,99995.70
2023-04-15T15:00:57.401Z,99999.36
2023-04-15T15:03:25.669Z,99997.89
2023-04-15T15:05:54.001Z,99998.14
2023-04-15T15:08:21.980Z,100000.63
2023-04-15T15:10:50.125Z,100001.70
2023-04-15T15:13:19.188Z,100000.83
2023-04-15T15:15:49.326Z,100003.83
2023-04-15T15:18:19.313Z,100007.52
2023-04-15T15:20:47.783Z,100011.84
2023-04-15T15:23:15.904Z,100012.28
2023-04-15T15:25:45.659Z,100009.76
2023-04-15T15:28:13.565Z,100012.58
2023-04-15T15:30:41.463Z,100009.80
2023-04-15T15:33:09.300Z,100008.71
2023-04-15T15:35:37.191Z,100013.60
2023-04-15T15:38:05.350Z,100011.73
2023-04-15T15:40:33.462Z,100018.35
2023-04-15T15:43:01.247Z,100019.65
2023-04-15T15:45:29.804Z,100019.77
2023-04-15T15:47:58.841Z,100024.05
2023-04-15T15:50:26.817Z,100032.48
2023-04-15T15:52:55.309Z,100024.69
2023-04-15T15:55:25.280Z,100031.34
2023-04-15T15:57:54.280Z,100037.88
2023-04-15T16:00:23.112Z,100038.67
2023-04-15T16:03:06.716Z,100040.19
2023-04-15T16:05:36.314Z,100039.88
2023-04-15T16:08:04.681Z,100043.51
2023-04-15T16:10:32.706Z,100046.48
2023-04-15T16:13:00.665Z,100046.77
2023-04-15T16:15:28.572Z,100047.48
2023-04-15T16:17:56.452Z,100047.59
2023-04-15T16:20:24.516Z,100055.19
2023-04-15T16:22:52.540Z,100058.69
2023-04-15T16:25:20.537Z,100059.36
2023-04-15T16:28:00.762Z,100060.06
2023-04-15T16:30:31.267Z,100063.00
2023-04-15T16:32:59.172Z,100063.88
2023-04-15T16:35:27.184Z,100064.86
2023-04-15T16:37:54.926Z,100067.11
2023-04-15T16:40:22.717Z,100066.17
2023-04-15T16:42:52.366Z,100069.27
2023-04-15T16:45:20.172Z,100073.54
2023-04-15T16:47:50.473Z,100075.14
2023-04-15T16:50:18.438Z,100079.71
2023-04-15T16:52:46.451Z,100080.98
2023-04-15T16:55:14.336Z,100080.59
2023-04-15T16:58:00.645Z,100090.64
2023-04-15T17:00:31.711Z,100089.89
2023-04-15T17:03:00.794Z,100089.67
2023-04-15T17:05:30.787Z,100094.99
2023-04-15T17:07:59.233Z,100092.45
2023-04-15T17:10:27.897Z,100096.84
2023-04-15T17:12:57.228Z,100097.83
2023-04-15T17:15:26.344Z,100098.36
2023-04-15T17:17:54.505Z,100099.73
2023-04-15T17:20:22.488Z,100093.98
2023-04-15T17:22:50.543Z,100102.38
2023-04-15T17:25:19.366Z,100104.72
2023-04-15T17:27:47.179Z,100112.35
2023-04-15T17:30:14.998Z,100112.41
2023-04-15T17:32:42.885Z,100115.02
2023-04-15T17:35:10.864Z,100116.98
2023-04-15T17:37:39.126Z,100121.45
2023-04-15T17:40:08.935Z,100124.74
2023-04-15T17:42:36.969Z,100130.17
2023-04-15T17:45:05.667Z,100127.80
2023-04-15T17:47:33.809Z,100132.73
2023-04-15T17:50:02.044Z,100138.88
2023-04-15T17:52:30.009Z,100139.33
2023-04-15T17:54:58.014Z,100131.80
2023-04-15T17:57:26.165Z,100135.17
2023-04-15T17:59:54.046Z,100132.40
2023-04-15T18:02:22.144Z,100132.10
2023-04-15T18:04:50.575Z,100142.11
2023-04-15T18:07:18.772Z,100153.07
2023-04-15T18:09:47.373Z,100163.50
2023-04-15T18:12:15.253Z,100154.70
2023-04-15T18:14:43.685Z,100162.98
2023-04-15T18:17:13.394Z,100167.27
2023-04-15T18:19:41.668Z,100172.52
2023-04-15T18:22:09.786Z,100174.23
2023-04-15T18:24:37.690Z,100172.20
2023-04-15T18:27:05.666Z,100170.97
2023-04-15T18:29:34.964Z,100171.69
2023-04-15T18:32:03.423Z,100177.76
2023-04-15T18:34:31.582Z,100182.06
2023-04-15T18:37:01.169Z,100186.31
2023-04-15T18:39:29.287Z,100190.64
2023-04-15T18:41:57.550Z,100192.88
2023-04-15T18:44:25.730Z,100191.45
2023-04-15T18:46:53.966Z,100197.11
2023-04-15T18:49:22.293Z,100199.02
2023-04-15T18:51:51.496Z,100200.77
2023-04-15T18:54:19.592Z,100201.93
2023-04-15T18:56:48.520Z,100199.71
2023-04-15T18:59:29.740Z,100201.08
2023-04-15T19:02:00.321Z,100202.08
2023-04-15T19:04:29.475Z,100202.27
2023-04-15T19:07:00.437Z,100204.14
2023-04-15T19:09:29.257Z,100209.96
2023-04-15T19:11:57.640Z,100206.76
2023-04-15T19:14:25.902Z,100210.55
2023-04-15T19:16:56.014Z,100210.35
2023-04-15T19:19:26.942Z,100208.80
2023-04-15T19:21:55.160Z,100204.10
2023-04-15T19:24:23.180Z,100213.86
2023-04-15T19:26:51.291Z,100220.05
2023-04-15T19:29:22.664Z,100220.39
2023-04-15T19:31:50.900Z,100218.04
2023-04-15T19:34:19.072Z,100216.75
2023-04-15T19:36:47.244Z,100212.98
2023-04-15T19:39:15.493Z,100223.37
2023-04-15T19:41:44.377Z,100222.13
2023-04-15T19:44:13.502Z,100220.35
2023-04-15T19:46:44.178Z,100222.55
2023-04-15T19:49:17.294Z,100228.56
2023-04-15T19:51:45.455Z,100227.35
2023-04-15T19:54:13.309Z,100225.77
2023-04-15T19:56:41.255Z,100226.33
2023-04-15T19:59:09.266Z,100222.36
2023-04-15T20:01:37.205Z,100224.23
2023-04-15T20:04:05.493Z,100222.95
2023-04-15T20:06:33.687Z,100228.01
2023-04-15T20:09:02.068Z,100232.98
2023-04-15T20:12:44.880Z,100232.33
2023-04-15T20:14:17.942Z,100236.29
2023-04-15T20:16:45.983Z,100242.28
2023-04-15T20:19:13.979Z,100245.78
2023-04-15T20:21:42.379Z,100245.88
2023-04-15T20:24:13.448Z,100245.48
2023-04-15T20:26:41.232Z,100240.95
2023-04-15T20:29:09.004Z,100251.83
2023-04-15T20:31:38.875Z,100255.51
2023-04-15T20:34:07.020Z,100257.95
2023-04-15T20:36:35.534Z,100266.48
2023-04-15T20:39:03.827Z,100272.30
2023-04-15T20:41:31.983Z,100267.23
2023-04-15T20:43:59.850Z,100272.73
2023-04-15T20:46:28.095Z,100276.08
2023-04-15T20:48:56.224Z,100278.34
2023-04-15T20:51:24.248Z,100278.85
2023-04-15T20:53:52.225Z,100285.05
2023-04-15T20:56:20.385Z,100288.11
2023-04-15T20:58:48.215Z,100292.22
2023-04-15T21:01:16.147Z,100295.77
2023-04-15T21:03:44.193Z,100300.69
2023-04-15T21:06:12.315Z,100300.89
2023-04-15T21:08:41.237Z,100304.85
2023-04-15T21:11:09.141Z,100309.13
2023-04-15T21:13:36.962Z,100311.73
2023-04-15T21:16:05.798Z,100315.90
2023-04-15T21:18:33.589Z,100317.13
2023-04-15T21:21:02.463Z,100322.69
2023-04-15T21:23:30.601Z,100325.75
2023-04-15T21:25:58.711Z,100326.96
2023-04-15T21:28:27.985Z,100330.71
2023-04-15T21:30:59.380Z,100334.21
2023-04-15T21:33:27.196Z,100335.13
2023-04-15T21:36:00.855Z,100334.69
2023-04-15T21:38:28.980Z,100338.89
2023-04-15T21:40:57.500Z,100339.89
2023-04-15T21:43:25.725Z,100345.69
2023-04-15T21:46:22.313Z,100345.67
2023-04-15T21:48:41.492Z,100349.30
2023-04-15T21:51:09.590Z,100352.46
2023-04-15T21:53:37.414Z,100351.21
2023-04-15T21:56:08.388Z,100345.58
2023-04-15T21:58:36.454Z,100349.99
2023-04-15T22:01:04.762Z,100353.15
2023-04-15T22:03:34.823Z,100357.27
2023-04-15T22:06:03.931Z,100357.30
2023-04-15T22:08:38.639Z,100362.70
2023-04-15T22:11:28.865Z,100358.68
2023-04-15T22:13:58.596Z,100356.15
2023-04-15T22:16:26.946Z,100363.15
2023-04-15T22:18:55.615Z,100364.23
2023-04-15T22:21:23.826Z,100366.02
2023-04-15T22:23:52.788Z,100375.09
2023-04-15T22:26:20.704Z,100380.04
2023-04-15T22:28:48.473Z,100381.65
2023-04-15T22:31:16.420Z,100386.56
2023-04-15T22:33:44.249Z,100385.84
2023-04-15T22:36:13.494Z,100390.19
2023-04-15T22:38:41.299Z,100390.77
2023-04-15T22:41:09.572Z,100393.05
2023-04-15T22:43:37.545Z,100393.10
2023-04-15T22:46:05.499Z,100399.14
2023-04-15T22:48:34.695Z,100402.45
2023-04-15T22:51:04.996Z,100402.14
2023-04-15T22:53:32.743Z,100411.13
2023-04-15T22:56:00.605Z,100415.46
2023-04-15T22:58:28.402Z,100415.88
2023-04-15T23:00:56.223Z,100415.08
2023-04-15T23:03:39.997Z,100414.77
2023-04-15T23:06:25.035Z,100410.25
2023-04-15T23:08:53.319Z,100409.13
2023-04-15T23:11:26.131Z,100410.66
2023-04-15T23:13:57.644Z,100410.14
2023-04-15T23:16:25.943Z,100413.96
2023-04-15T23:18:54.080Z,100416.66
2023-04-15T23:21:22.475Z,100417.30
2023-04-15T23:23:51.945Z,100416.10
2023-04-15T23:26:19.705Z,100417.43
2023-04-15T23:28:47.461Z,100418.48
2023-04-15T23:31:15.262Z,100418.65
2023-04-15T23:33:43.051Z,100417.10
2023-04-15T23:36:10.971Z,100417.95
2023-04-15T23:38:38.788Z,100421.61
2023-04-15T23:41:06.575Z,100420.08
2023-04-15T23:43:34.487Z,100423.33
2023-04-15T23:46:02.543Z,100423.64
2023-04-15T23:48:31.192Z,100420.86
2023-04-15T23:50:59.025Z,100422.83
2023-04-15T23:53:27.555Z,100428.26
2023-04-15T23:55:56.446Z,100425.70
2023-04-15T23:58:24.215Z,100426.83
